Baita Airport
ZBHH : now visible

Airfield :











YOU CAN JOIN US ON...

 
LOGIN :

Register | Disclaimer

   EN    FR    IT 

 









Legend :    VFR   Marginal VFR   IFR   Intensive IFR   Very Intensive IFR
Visi :
Ceiling :
>= 8 km
>= 3000ft
5 to 8 km
1000 to 3000 ft
1500m to 5 km
500 to 1000 ft
800 to 1500m
200 to 500 ft
< 800m
< 200 ft
Symbols :   Thunderstorms  Fog  Heavy snow  Heavy precipitations  Wind > 20 kt







- Airport Elevation : 3556 ft
- IATA code : HET


ZBHH - Baita

CURRENT METAR :
  • 210300Z VRB02MPS 7000 NSC 19/06 Q1014 NOSIG

EXPIRED METARs :
  • 210200Z 20002MPS 160V270 8000 NSC 18/05 Q1014 NOSIG
  • 210100Z VRB01MPS 8000 NSC 17/01 Q1014 NOSIG

TAF TAF ZBHH
Valid from the 21 at 00:00 until the 22 at 00:00 UTC


201901Z 2100/2124 23004MPS 9999 FEW040 TX23/2108Z TN10/2122Z
ZBPE FIR / Asia



MET'MAP, your aeronautical weather chart ! - Copyright ORBIFLY December 2007 - Disclaimer

ORBIFLY MET'MAP TEAM :

Programming & Development : Alexandra Zaïnal
Concept & Development : Baudouin d'Aumeries
Co-Development & Prog : Marc-Olivier Méhu
Technical & hardware support : Manuel Goepfert

Contact : metmap@orbifly.com




SOURCES & CREDITS :

   NOAA       Earth
Advisory